sensor_id;sensor_type;location;lat;lon;timestamp;P1;durP1;ratioP1;P2;durP2;ratioP2
12459;SDS011;6295;49.452;8.466;2023-04-15T04:14:51;7.17;;;5.33;;
12459;SDS011;6295;49.452;8.466;2023-04-15T04:18:53;6.73;;;5.00;;
12459;SDS011;6295;49.452;8.466;2023-04-15T04:22:55;8.20;;;5.13;;
12459;SDS011;6295;49.452;8.466;2023-04-15T04:26:57;7.87;;;5.07;;
12459;SDS011;6295;49.452;8.466;2023-04-15T04:31:01;7.03;;;4.93;;
12459;SDS011;6295;49.452;8.466;2023-04-15T04:35:03;8.57;;;4.97;;
12459;SDS011;6295;49.452;8.466;2023-04-15T04:39:06;7.13;;;4.80;;
12459;SDS011;6295;49.452;8.466;2023-04-15T04:43:08;7.10;;;4.97;;
12459;SDS011;6295;49.452;8.466;2023-04-15T04:47:11;7.17;;;4.97;;
12459;SDS011;6295;49.452;8.466;2023-04-15T04:51:14;5.40;;;4.47;;
12459;SDS011;6295;49.452;8.466;2023-04-15T04:55:16;7.17;;;4.77;;
12459;SDS011;6295;49.452;8.466;2023-04-15T04:59:18;7.23;;;5.10;;
12459;SDS011;6295;49.452;8.466;2023-04-15T05:03:22;5.83;;;4.03;;
12459;SDS011;6295;49.452;8.466;2023-04-15T05:07:24;6.70;;;5.03;;
12459;SDS011;6295;49.452;8.466;2023-04-15T05:11:26;7.00;;;5.07;;
12459;SDS011;6295;49.452;8.466;2023-04-15T05:15:28;7.23;;;4.93;;
12459;SDS011;6295;49.452;8.466;2023-04-15T05:19:33;7.37;;;4.80;;
12459;SDS011;6295;49.452;8.466;2023-04-15T05:23:35;8.40;;;4.63;;
12459;SDS011;6295;49.452;8.466;2023-04-15T05:27:38;7.20;;;5.00;;
12459;SDS011;6295;49.452;8.466;2023-04-15T05:31:40;9.13;;;5.20;;
12459;SDS011;6295;49.452;8.466;2023-04-15T05:35:44;6.63;;;4.80;;
12459;SDS011;6295;49.452;8.466;2023-04-15T05:39:46;8.57;;;5.50;;
12459;SDS011;6295;49.452;8.466;2023-04-15T05:43:48;6.10;;;4.60;;
12459;SDS011;6295;49.452;8.466;2023-04-15T05:47:51;7.30;;;5.57;;
12459;SDS011;6295;49.452;8.466;2023-04-15T05:51:55;7.80;;;5.50;;
12459;SDS011;6295;49.452;8.466;2023-04-15T05:55:57;9.50;;;5.10;;
12459;SDS011;6295;49.452;8.466;2023-04-15T05:59:59;7.67;;;5.37;;
12459;SDS011;6295;49.452;8.466;2023-04-15T06:04:01;6.60;;;5.43;;
12459;SDS011;6295;49.452;8.466;2023-04-15T06:08:05;6.70;;;4.97;;
12459;SDS011;6295;49.452;8.466;2023-04-15T06:12:07;8.03;;;5.50;;
12459;SDS011;6295;49.452;8.466;2023-04-15T06:16:11;6.37;;;5.10;;
12459;SDS011;6295;49.452;8.466;2023-04-15T06:20:13;6.73;;;5.17;;
12459;SDS011;6295;49.452;8.466;2023-04-15T06:24:17;8.47;;;5.97;;
12459;SDS011;6295;49.452;8.466;2023-04-15T06:28:19;9.27;;;6.50;;
12459;SDS011;6295;49.452;8.466;2023-04-15T06:32:22;8.93;;;6.07;;
12459;SDS011;6295;49.452;8.466;2023-04-15T06:36:24;12.83;;;8.07;;
12459;SDS011;6295;49.452;8.466;2023-04-15T06:40:28;7.80;;;6.17;;
12459;SDS011;6295;49.452;8.466;2023-04-15T06:44:30;10.77;;;7.03;;
12459;SDS011;6295;49.452;8.466;2023-04-15T06:48:32;9.27;;;6.67;;
12459;SDS011;6295;49.452;8.466;2023-04-15T06:52:34;10.10;;;6.33;;
12459;SDS011;6295;49.452;8.466;2023-04-15T06:56:38;7.37;;;6.00;;
12459;SDS011;6295;49.452;8.466;2023-04-15T07:00:41;10.17;;;6.63;;
12459;SDS011;6295;49.452;8.466;2023-04-15T07:04:43;9.70;;;6.57;;
12459;SDS011;6295;49.452;8.466;2023-04-15T07:08:46;12.07;;;7.70;;
12459;SDS011;6295;49.452;8.466;2023-04-15T07:12:49;10.10;;;7.33;;
12459;SDS011;6295;49.452;8.466;2023-04-15T07:16:51;13.57;;;8.90;;
12459;SDS011;6295;49.452;8.466;2023-04-15T07:20:53;14.07;;;9.07;;
12459;SDS011;6295;49.452;8.466;2023-04-15T07:24:55;12.83;;;8.80;;
12459;SDS011;6295;49.452;8.466;2023-04-15T07:28:59;9.70;;;7.37;;
12459;SDS011;6295;49.452;8.466;2023-04-15T07:33:01;12.77;;;8.80;;
12459;SDS011;6295;49.452;8.466;2023-04-15T07:37:03;20.73;;;11.60;;
12459;SDS011;6295;49.452;8.466;2023-04-15T07:41:06;17.33;;;10.13;;
12459;SDS011;6295;49.452;8.466;2023-04-15T07:45:10;16.87;;;10.57;;
